sensor_id;sensor_type;location;lat;lon;timestamp;P1;durP1;ratioP1;P2;durP2;ratioP2
49566;SDS011;35472;50.514;30.448;2023-11-18T00:00:34;10.60;;;6.60;;
49566;SDS011;35472;50.514;30.448;2023-11-18T00:02:59;13.95;;;8.32;;
49566;SDS011;35472;50.514;30.448;2023-11-18T00:05:25;10.95;;;8.65;;
49566;SDS011;35472;50.514;30.448;2023-11-18T00:07:51;14.07;;;8.27;;
49566;SDS011;35472;50.514;30.448;2023-11-18T00:10:16;17.55;;;8.70;;
49566;SDS011;35472;50.514;30.448;2023-11-18T00:12:42;12.00;;;7.97;;
49566;SDS011;35472;50.514;30.448;2023-11-18T00:15:08;12.75;;;8.35;;
49566;SDS011;35472;50.514;30.448;2023-11-18T00:17:35;13.10;;;8.60;;
49566;SDS011;35472;50.514;30.448;2023-11-18T00:20:01;13.00;;;7.97;;
49566;SDS011;35472;50.514;30.448;2023-11-18T00:22:28;12.93;;;8.32;;
49566;SDS011;35472;50.514;30.448;2023-11-18T00:24:54;13.82;;;8.43;;
49566;SDS011;35472;50.514;30.448;2023-11-18T00:27:20;12.63;;;8.93;;
49566;SDS011;35472;50.514;30.448;2023-11-18T00:29:48;13.35;;;9.20;;
49566;SDS011;35472;50.514;30.448;2023-11-18T00:32:13;11.30;;;7.32;;
49566;SDS011;35472;50.514;30.448;2023-11-18T00:34:39;13.85;;;8.15;;
49566;SDS011;35472;50.514;30.448;2023-11-18T00:37:04;12.30;;;7.53;;
49566;SDS011;35472;50.514;30.448;2023-11-18T00:39:30;11.90;;;6.65;;
49566;SDS011;35472;50.514;30.448;2023-11-18T00:41:56;11.48;;;7.22;;
49566;SDS011;35472;50.514;30.448;2023-11-18T00:44:21;10.35;;;7.10;;
49566;SDS011;35472;50.514;30.448;2023-11-18T00:46:47;14.38;;;8.60;;
49566;SDS011;35472;50.514;30.448;2023-11-18T00:49:13;10.75;;;7.85;;
49566;SDS011;35472;50.514;30.448;2023-11-18T00:51:38;13.05;;;7.38;;
49566;SDS011;35472;50.514;30.448;2023-11-18T00:54:04;13.57;;;8.43;;
49566;SDS011;35472;50.514;30.448;2023-11-18T00:56:33;13.00;;;9.02;;
49566;SDS011;35472;50.514;30.448;2023-11-18T00:58:58;16.13;;;8.82;;
49566;SDS011;35472;50.514;30.448;2023-11-18T01:01:26;11.00;;;7.60;;
49566;SDS011;35472;50.514;30.448;2023-11-18T01:03:53;9.32;;;7.03;;
49566;SDS011;35472;50.514;30.448;2023-11-18T01:06:19;13.65;;;8.15;;
49566;SDS011;35472;50.514;30.448;2023-11-18T01:08:48;10.52;;;7.55;;
49566;SDS011;35472;50.514;30.448;2023-11-18T01:11:17;12.10;;;8.40;;
49566;SDS011;35472;50.514;30.448;2023-11-18T01:13:47;9.70;;;6.68;;
49566;SDS011;35472;50.514;30.448;2023-11-18T01:16:16;11.73;;;7.80;;
49566;SDS011;35472;50.514;30.448;2023-11-18T01:18:42;15.52;;;7.55;;
49566;SDS011;35472;50.514;30.448;2023-11-18T01:21:08;12.98;;;8.45;;
49566;SDS011;35472;50.514;30.448;2023-11-18T01:23:36;13.13;;;8.13;;
49566;SDS011;35472;50.514;30.448;2023-11-18T01:26:04;12.95;;;7.80;;
49566;SDS011;35472;50.514;30.448;2023-11-18T01:28:33;15.00;;;8.32;;
49566;SDS011;35472;50.514;30.448;2023-11-18T01:31:04;11.52;;;7.63;;
49566;SDS011;35472;50.514;30.448;2023-11-18T01:33:30;11.80;;;7.82;;
49566;SDS011;35472;50.514;30.448;2023-11-18T01:35:57;12.93;;;7.60;;
49566;SDS011;35472;50.514;30.448;2023-11-18T01:38:23;12.25;;;7.78;;
49566;SDS011;35472;50.514;30.448;2023-11-18T01:40:51;13.05;;;7.45;;
49566;SDS011;35472;50.514;30.448;2023-11-18T01:43:18;11.73;;;7.43;;
49566;SDS011;35472;50.514;30.448;2023-11-18T01:45:44;11.63;;;6.88;;
49566;SDS011;35472;50.514;30.448;2023-11-18T01:48:09;15.07;;;7.75;;
49566;SDS011;35472;50.514;30.448;2023-11-18T01:50:39;10.55;;;7.13;;
49566;SDS011;35472;50.514;30.448;2023-11-18T01:53:07;9.65;;;7.47;;
49566;SDS011;35472;50.514;30.448;2023-11-18T01:55:35;9.98;;;7.25;;
49566;SDS011;35472;50.514;30.448;2023-11-18T01:58:01;13.70;;;9.07;;
49566;SDS011;35472;50.514;30.448;2023-11-18T02:00:38;12.27;;;7.60;;
49566;SDS011;35472;50.514;30.448;2023-11-18T02:03:06;12.88;;;8.93;;
49566;SDS011;35472;50.514;30.448;2023-11-18T02:05:32;11.35;;;7.40;;
49566;SDS011;35472;50.514;30.448;2023-11-18T02:07:58;11.18;;;8.05;;
49566;SDS011;35472;50.514;30.448;2023-11-18T02:10:26;11.35;;;7.55;;
49566;SDS011;35472;50.514;30.448;2023-11-18T02:13:12;14.18;;;8.63;;
49566;SDS011;35472;50.514;30.448;2023-11-18T02:15:54;12.15;;;7.22;;
49566;SDS011;35472;50.514;30.448;2023-11-18T02:18:26;12.48;;;7.72;;
49566;SDS011;35472;50.514;30.448;2023-11-18T02:20:53;10.43;;;7.00;;
49566;SDS011;35472;50.514;30.448;2023-11-18T02:23:23;9.88;;;7.05;;
49566;SDS011;35472;50.514;30.448;2023-11-18T02:25:49;12.25;;;8.18;;
49566;SDS011;35472;50.514;30.448;2023-11-18T02:28:15;11.65;;;7.60;;
49566;SDS011;35472;50.514;30.448;2023-11-18T02:30:41;10.63;;;7.57;;
49566;SDS011;35472;50.514;30.448;2023-11-18T02:36:09;11.15;;;7.45;;
49566;SDS011;35472;50.514;30.448;2023-11-18T02:38:46;11.55;;;8.02;;
49566;SDS011;35472;50.514;30.448;2023-11-18T02:41:15;11.13;;;7.07;;
49566;SDS011;35472;50.514;30.448;2023-11-18T02:43:43;13.40;;;8.05;;
49566;SDS011;35472;50.514;30.448;2023-11-18T02:46:10;13.23;;;8.68;;
49566;SDS011;35472;50.514;30.448;2023-11-18T02:48:39;10.25;;;8.10;;
49566;SDS011;35472;50.514;30.448;2023-11-18T02:51:06;11.48;;;8.00;;
49566;SDS011;35472;50.514;30.448;2023-11-18T02:53:33;10.63;;;7.35;;
49566;SDS011;35472;50.514;30.448;2023-11-18T02:55:59;12.65;;;9.00;;
49566;SDS011;35472;50.514;30.448;2023-11-18T02:58:30;10.73;;;7.03;;
49566;SDS011;35472;50.514;30.448;2023-11-18T03:00:56;12.90;;;7.95;;
49566;SDS011;35472;50.514;30.448;2023-11-18T03:03:24;12.20;;;6.97;;
49566;SDS011;35472;50.514;30.448;2023-11-18T03:05:52;12.88;;;7.15;;
49566;SDS011;35472;50.514;30.448;2023-11-18T03:08:17;11.15;;;7.38;;
49566;SDS011;35472;50.514;30.448;2023-11-18T03:10:43;11.00;;;7.63;;
49566;SDS011;35472;50.514;30.448;2023-11-18T03:13:09;10.98;;;7.78;;
49566;SDS011;35472;50.514;30.448;2023-11-18T03:15:35;12.30;;;7.68;;
49566;SDS011;35472;50.514;30.448;2023-11-18T03:18:01;12.48;;;7.28;;
49566;SDS011;35472;50.514;30.448;2023-11-18T03:20:26;11.10;;;7.00;;
49566;SDS011;35472;50.514;30.448;2023-11-18T03:22:53;12.50;;;8.30;;
49566;SDS011;35472;50.514;30.448;2023-11-18T03:25:19;11.80;;;7.75;;
49566;SDS011;35472;50.514;30.448;2023-11-18T03:27:47;10.98;;;6.53;;
49566;SDS011;35472;50.514;30.448;2023-11-18T03:30:13;15.95;;;8.73;;
49566;SDS011;35472;50.514;30.448;2023-11-18T03:32:39;12.70;;;8.43;;
49566;SDS011;35472;50.514;30.448;2023-11-18T03:35:06;10.65;;;7.57;;
49566;SDS011;35472;50.514;30.448;2023-11-18T03:37:34;13.02;;;8.32;;
49566;SDS011;35472;50.514;30.448;2023-11-18T03:40:13;10.50;;;6.60;;
49566;SDS011;35472;50.514;30.448;2023-11-18T03:42:40;11.53;;;7.50;;
49566;SDS011;35472;50.514;30.448;2023-11-18T03:45:07;11.27;;;7.07;;
49566;SDS011;35472;50.514;30.448;2023-11-18T03:47:34;10.40;;;6.75;;
49566;SDS011;35472;50.514;30.448;2023-11-18T03:50:00;11.73;;;8.00;;
49566;SDS011;35472;50.514;30.448;2023-11-18T03:52:26;11.70;;;7.57;;
49566;SDS011;35472;50.514;30.448;2023-11-18T03:54:53;11.90;;;7.90;;
49566;SDS011;35472;50.514;30.448;2023-11-18T03:57:20;12.02;;;7.82;;
49566;SDS011;35472;50.514;30.448;2023-11-18T03:59:46;11.63;;;7.60;;
49566;SDS011;35472;50.514;30.448;2023-11-18T04:02:11;10.63;;;7.55;;
49566;SDS011;35472;50.514;30.448;2023-11-18T04:04:37;12.95;;;8.88;;
49566;SDS011;35472;50.514;30.448;2023-11-18T04:07:03;10.68;;;7.40;;
49566;SDS011;35472;50.514;30.448;2023-11-18T04:09:30;11.82;;;8.48;;
49566;SDS011;35472;50.514;30.448;2023-11-18T04:11:56;11.38;;;7.68;;
49566;SDS011;35472;50.514;30.448;2023-11-18T04:14:23;12.27;;;7.32;;
49566;SDS011;35472;50.514;30.448;2023-11-18T04:16:50;10.32;;;7.28;;
49566;SDS011;35472;50.514;30.448;2023-11-18T04:19:16;10.40;;;7.18;;
49566;SDS011;35472;50.514;30.448;2023-11-18T04:21:42;11.05;;;6.78;;
49566;SDS011;35472;50.514;30.448;2023-11-18T04:24:10;11.18;;;7.00;;
49566;SDS011;35472;50.514;30.448;2023-11-18T04:26:35;11.98;;;8.23;;
49566;SDS011;35472;50.514;30.448;2023-11-18T04:29:01;14.38;;;8.35;;
49566;SDS011;35472;50.514;30.448;2023-11-18T04:31:26;13.02;;;8.63;;
49566;SDS011;35472;50.514;30.448;2023-11-18T04:33:52;10.88;;;8.10;;
49566;SDS011;35472;50.514;30.448;2023-11-18T04:36:21;14.60;;;8.88;;
49566;SDS011;35472;50.514;30.448;2023-11-18T04:38:47;13.07;;;8.23;;
49566;SDS011;35472;50.514;30.448;2023-11-18T04:41:14;11.73;;;7.13;;
49566;SDS011;35472;50.514;30.448;2023-11-18T04:43:40;11.02;;;6.95;;
49566;SDS011;35472;50.514;30.448;2023-11-18T04:46:07;13.23;;;9.18;;
49566;SDS011;35472;50.514;30.448;2023-11-18T04:48:33;14.05;;;8.85;;
49566;SDS011;35472;50.514;30.448;2023-11-18T04:51:02;17.50;;;7.95;;
49566;SDS011;35472;50.514;30.448;2023-11-18T04:53:28;10.23;;;6.95;;
49566;SDS011;35472;50.514;30.448;2023-11-18T04:55:54;12.13;;;8.20;;
49566;SDS011;35472;50.514;30.448;2023-11-18T04:58:20;13.70;;;8.80;;
49566;SDS011;35472;50.514;30.448;2023-11-18T05:00:48;10.82;;;8.30;;
49566;SDS011;35472;50.514;30.448;2023-11-18T05:03:13;11.85;;;8.63;;
49566;SDS011;35472;50.514;30.448;2023-11-18T05:05:39;14.32;;;8.52;;
49566;SDS011;35472;50.514;30.448;2023-11-18T05:08:05;13.90;;;8.32;;
49566;SDS011;35472;50.514;30.448;2023-11-18T05:10:35;14.25;;;8.25;;
49566;SDS011;35472;50.514;30.448;2023-11-18T05:13:01;14.93;;;9.15;;
49566;SDS011;35472;50.514;30.448;2023-11-18T05:15:27;13.82;;;8.85;;
49566;SDS011;35472;50.514;30.448;2023-11-18T05:17:54;13.95;;;9.10;;
49566;SDS011;35472;50.514;30.448;2023-11-18T05:20:20;11.90;;;8.20;;
49566;SDS011;35472;50.514;30.448;2023-11-18T05:22:46;12.27;;;7.40;;
49566;SDS011;35472;50.514;30.448;2023-11-18T05:25:12;14.48;;;8.88;;
49566;SDS011;35472;50.514;30.448;2023-11-18T05:27:38;14.05;;;9.52;;
49566;SDS011;35472;50.514;30.448;2023-11-18T05:30:10;14.07;;;9.10;;
49566;SDS011;35472;50.514;30.448;2023-11-18T05:32:36;12.27;;;8.68;;
49566;SDS011;35472;50.514;30.448;2023-11-18T05:35:03;11.00;;;6.05;;
49566;SDS011;35472;50.514;30.448;2023-11-18T05:37:30;11.85;;;7.72;;
49566;SDS011;35472;50.514;30.448;2023-11-18T05:40:00;11.90;;;7.45;;
49566;SDS011;35472;50.514;30.448;2023-11-18T05:42:33;12.20;;;8.07;;
49566;SDS011;35472;50.514;30.448;2023-11-18T05:45:02;14.07;;;8.75;;
49566;SDS011;35472;50.514;30.448;2023-11-18T05:47:30;14.77;;;8.45;;
49566;SDS011;35472;50.514;30.448;2023-11-18T05:49:55;14.48;;;8.68;;
49566;SDS011;35472;50.514;30.448;2023-11-18T05:52:22;11.18;;;8.07;;
49566;SDS011;35472;50.514;30.448;2023-11-18T05:54:47;12.13;;;8.23;;
49566;SDS011;35472;50.514;30.448;2023-11-18T05:57:14;12.50;;;8.23;;
49566;SDS011;35472;50.514;30.448;2023-11-18T05:59:40;12.52;;;8.38;;
49566;SDS011;35472;50.514;30.448;2023-11-18T06:02:06;10.40;;;7.07;;
49566;SDS011;35472;50.514;30.448;2023-11-18T06:04:33;12.63;;;7.68;;
49566;SDS011;35472;50.514;30.448;2023-11-18T06:06:58;11.65;;;8.05;;
49566;SDS011;35472;50.514;30.448;2023-11-18T06:09:24;13.70;;;8.55;;
49566;SDS011;35472;50.514;30.448;2023-11-18T06:11:51;12.00;;;8.48;;
49566;SDS011;35472;50.514;30.448;2023-11-18T06:14:19;10.85;;;7.10;;
49566;SDS011;35472;50.514;30.448;2023-11-18T06:16:44;12.52;;;8.75;;
49566;SDS011;35472;50.514;30.448;2023-11-18T06:19:10;9.98;;;6.72;;
49566;SDS011;35472;50.514;30.448;2023-11-18T06:21:36;12.13;;;8.32;;
49566;SDS011;35472;50.514;30.448;2023-11-18T06:24:02;12.23;;;7.05;;
49566;SDS011;35472;50.514;30.448;2023-11-18T06:26:30;10.23;;;7.53;;
49566;SDS011;35472;50.514;30.448;2023-11-18T06:28:56;10.57;;;7.10;;
49566;SDS011;35472;50.514;30.448;2023-11-18T06:31:22;11.38;;;7.43;;
49566;SDS011;35472;50.514;30.448;2023-11-18T06:33:49;14.18;;;7.97;;
49566;SDS011;35472;50.514;30.448;2023-11-18T06:38:43;13.93;;;9.57;;
49566;SDS011;35472;50.514;30.448;2023-11-18T06:41:09;12.70;;;7.30;;
49566;SDS011;35472;50.514;30.448;2023-11-18T06:43:37;10.25;;;6.78;;
49566;SDS011;35472;50.514;30.448;2023-11-18T06:48:53;11.90;;;8.15;;
49566;SDS011;35472;50.514;30.448;2023-11-18T06:51:23;11.23;;;7.30;;
49566;SDS011;35472;50.514;30.448;2023-11-18T06:53:50;8.82;;;6.57;;
49566;SDS011;35472;50.514;30.448;2023-11-18T06:56:17;12.20;;;8.20;;
49566;SDS011;35472;50.514;30.448;2023-11-18T06:58:43;9.90;;;6.82;;
49566;SDS011;35472;50.514;30.448;2023-11-18T07:01:09;10.60;;;7.15;;
49566;SDS011;35472;50.514;30.448;2023-11-18T07:03:38;12.00;;;8.00;;
49566;SDS011;35472;50.514;30.448;2023-11-18T07:06:04;11.68;;;7.18;;
49566;SDS011;35472;50.514;30.448;2023-11-18T07:08:31;9.23;;;6.70;;
49566;SDS011;35472;50.514;30.448;2023-11-18T07:10:58;10.60;;;7.75;;
49566;SDS011;35472;50.514;30.448;2023-11-18T07:13:23;11.45;;;7.15;;
49566;SDS011;35472;50.514;30.448;2023-11-18T07:15:49;12.70;;;7.43;;
49566;SDS011;35472;50.514;30.448;2023-11-18T07:18:15;9.63;;;7.07;;
49566;SDS011;35472;50.514;30.448;2023-11-18T07:20:41;9.70;;;6.85;;
49566;SDS011;35472;50.514;30.448;2023-11-18T07:23:10;8.60;;;5.90;;
49566;SDS011;35472;50.514;30.448;2023-11-18T07:25:37;10.10;;;7.40;;
49566;SDS011;35472;50.514;30.448;2023-11-18T07:28:02;13.30;;;8.43;;
49566;SDS011;35472;50.514;30.448;2023-11-18T07:30:30;11.32;;;8.07;;
49566;SDS011;35472;50.514;30.448;2023-11-18T07:32:56;11.18;;;7.60;;
49566;SDS011;35472;50.514;30.448;2023-11-18T07:35:25;12.82;;;7.32;;
49566;SDS011;35472;50.514;30.448;2023-11-18T07:37:52;10.35;;;7.60;;
49566;SDS011;35472;50.514;30.448;2023-11-18T07:40:18;10.85;;;7.25;;
49566;SDS011;35472;50.514;30.448;2023-11-18T07:42:53;10.00;;;6.75;;
49566;SDS011;35472;50.514;30.448;2023-11-18T07:45:21;13.52;;;8.18;;
49566;SDS011;35472;50.514;30.448;2023-11-18T07:47:51;15.48;;;7.22;;
49566;SDS011;35472;50.514;30.448;2023-11-18T07:50:19;10.50;;;7.60;;
49566;SDS011;35472;50.514;30.448;2023-11-18T07:52:47;12.20;;;8.32;;
49566;SDS011;35472;50.514;30.448;2023-11-18T07:55:14;14.63;;;8.48;;
49566;SDS011;35472;50.514;30.448;2023-11-18T07:57:40;10.00;;;7.38;;
49566;SDS011;35472;50.514;30.448;2023-11-18T08:00:06;10.25;;;6.47;;
49566;SDS011;35472;50.514;30.448;2023-11-18T08:02:38;9.48;;;6.80;;
49566;SDS011;35472;50.514;30.448;2023-11-18T08:05:04;11.60;;;6.38;;
49566;SDS011;35472;50.514;30.448;2023-11-18T08:07:34;10.32;;;6.72;;
49566;SDS011;35472;50.514;30.448;2023-11-18T08:10:01;10.23;;;6.65;;
49566;SDS011;35472;50.514;30.448;2023-11-18T08:12:29;15.88;;;7.07;;
49566;SDS011;35472;50.514;30.448;2023-11-18T08:14:56;11.48;;;7.32;;
49566;SDS011;35472;50.514;30.448;2023-11-18T08:17:23;10.75;;;7.13;;
49566;SDS011;35472;50.514;30.448;2023-11-18T08:19:50;7.82;;;5.40;;
49566;SDS011;35472;50.514;30.448;2023-11-18T08:22:17;11.10;;;7.15;;
49566;SDS011;35472;50.514;30.448;2023-11-18T08:24:44;10.52;;;6.85;;
49566;SDS011;35472;50.514;30.448;2023-11-18T08:27:13;10.02;;;6.22;;
49566;SDS011;35472;50.514;30.448;2023-11-18T08:29:38;11.80;;;6.72;;
49566;SDS011;35472;50.514;30.448;2023-11-18T08:32:04;10.27;;;5.70;;
49566;SDS011;35472;50.514;30.448;2023-11-18T08:34:31;8.27;;;5.80;;
49566;SDS011;35472;50.514;30.448;2023-11-18T08:36:59;12.93;;;7.18;;
49566;SDS011;35472;50.514;30.448;2023-11-18T08:39:25;7.88;;;5.45;;
49566;SDS011;35472;50.514;30.448;2023-11-18T08:41:51;10.82;;;6.22;;
49566;SDS011;35472;50.514;30.448;2023-11-18T08:44:17;9.05;;;5.95;;
49566;SDS011;35472;50.514;30.448;2023-11-18T08:46:43;10.77;;;6.88;;
49566;SDS011;35472;50.514;30.448;2023-11-18T08:49:09;11.02;;;7.05;;
49566;SDS011;35472;50.514;30.448;2023-11-18T08:51:37;8.10;;;6.18;;
49566;SDS011;35472;50.514;30.448;2023-11-18T08:54:07;7.78;;;6.00;;
49566;SDS011;35472;50.514;30.448;2023-11-18T08:56:48;7.65;;;5.90;;
49566;SDS011;35472;50.514;30.448;2023-11-18T08:59:19;7.53;;;4.53;;
49566;SDS011;35472;50.514;30.448;2023-11-18T09:01:50;8.05;;;5.38;;
49566;SDS011;35472;50.514;30.448;2023-11-18T09:04:24;7.70;;;5.00;;
49566;SDS011;35472;50.514;30.448;2023-11-18T09:06:50;11.88;;;6.35;;
49566;SDS011;35472;50.514;30.448;2023-11-18T09:09:20;9.68;;;6.40;;
49566;SDS011;35472;50.514;30.448;2023-11-18T09:11:54;8.55;;;5.82;;
49566;SDS011;35472;50.514;30.448;2023-11-18T09:14:21;10.07;;;5.63;;
49566;SDS011;35472;50.514;30.448;2023-11-18T09:16:50;9.48;;;5.53;;
49566;SDS011;35472;50.514;30.448;2023-11-18T09:19:24;7.88;;;5.03;;
49566;SDS011;35472;50.514;30.448;2023-11-18T09:21:50;7.65;;;5.53;;
49566;SDS011;35472;50.514;30.448;2023-11-18T09:24:17;10.13;;;5.60;;
49566;SDS011;35472;50.514;30.448;2023-11-18T09:26:45;9.73;;;6.22;;
49566;SDS011;35472;50.514;30.448;2023-11-18T09:29:13;8.45;;;5.97;;
49566;SDS011;35472;50.514;30.448;2023-11-18T09:31:46;10.90;;;5.30;;
49566;SDS011;35472;50.514;30.448;2023-11-18T09:34:15;7.60;;;5.38;;
49566;SDS011;35472;50.514;30.448;2023-11-18T09:36:43;6.53;;;4.75;;
49566;SDS011;35472;50.514;30.448;2023-11-18T09:39:08;12.07;;;4.95;;
49566;SDS011;35472;50.514;30.448;2023-11-18T09:41:42;8.40;;;4.65;;
49566;SDS011;35472;50.514;30.448;2023-11-18T09:44:08;7.50;;;4.95;;
49566;SDS011;35472;50.514;30.448;2023-11-18T09:46:37;7.78;;;5.13;;
49566;SDS011;35472;50.514;30.448;2023-11-18T09:49:12;5.68;;;4.43;;
49566;SDS011;35472;50.514;30.448;2023-11-18T09:51:58;5.82;;;4.78;;
49566;SDS011;35472;50.514;30.448;2023-11-18T09:54:31;5.80;;;4.90;;
49566;SDS011;35472;50.514;30.448;2023-11-18T09:57:20;6.10;;;4.18;;
49566;SDS011;35472;50.514;30.448;2023-11-18T10:02:23;3.13;;;2.70;;
49566;SDS011;35472;50.514;30.448;2023-11-18T10:04:49;5.45;;;3.55;;
49566;SDS011;35472;50.514;30.448;2023-11-18T10:07:22;5.03;;;3.95;;
49566;SDS011;35472;50.514;30.448;2023-11-18T10:09:54;6.75;;;4.57;;
49566;SDS011;35472;50.514;30.448;2023-11-18T10:12:24;5.95;;;4.22;;
49566;SDS011;35472;50.514;30.448;2023-11-18T10:14:52;5.78;;;3.80;;
49566;SDS011;35472;50.514;30.448;2023-11-18T10:17:18;4.05;;;3.38;;
49566;SDS011;35472;50.514;30.448;2023-11-18T10:22:22;4.80;;;4.10;;
49566;SDS011;35472;50.514;30.448;2023-11-18T10:24:49;4.53;;;3.88;;
49566;SDS011;35472;50.514;30.448;2023-11-18T10:27:14;5.53;;;4.53;;
49566;SDS011;35472;50.514;30.448;2023-11-18T10:29:40;3.72;;;3.30;;
49566;SDS011;35472;50.514;30.448;2023-11-18T10:32:06;4.28;;;3.15;;
49566;SDS011;35472;50.514;30.448;2023-11-18T10:34:41;5.78;;;3.40;;
49566;SDS011;35472;50.514;30.448;2023-11-18T10:37:08;4.78;;;3.20;;
49566;SDS011;35472;50.514;30.448;2023-11-18T10:39:36;5.57;;;3.47;;
49566;SDS011;35472;50.514;30.448;2023-11-18T10:42:02;3.83;;;2.80;;
49566;SDS011;35472;50.514;30.448;2023-11-18T10:44:28;5.05;;;4.10;;
49566;SDS011;35472;50.514;30.448;2023-11-18T10:46:57;6.78;;;3.47;;
49566;SDS011;35472;50.514;30.448;2023-11-18T10:49:27;4.93;;;3.65;;
49566;SDS011;35472;50.514;30.448;2023-11-18T10:51:54;4.53;;;2.58;;
49566;SDS011;35472;50.514;30.448;2023-11-18T10:54:21;5.53;;;3.50;;
49566;SDS011;35472;50.514;30.448;2023-11-18T10:56:50;8.68;;;4.28;;
49566;SDS011;35472;50.514;30.448;2023-11-18T10:59:16;4.47;;;3.22;;
49566;SDS011;35472;50.514;30.448;2023-11-18T11:01:43;4.05;;;3.08;;
49566;SDS011;35472;50.514;30.448;2023-11-18T11:04:13;3.92;;;3.30;;
49566;SDS011;35472;50.514;30.448;2023-11-18T11:06:46;5.82;;;3.88;;
49566;SDS011;35472;50.514;30.448;2023-11-18T11:09:17;4.45;;;3.90;;
49566;SDS011;35472;50.514;30.448;2023-11-18T11:11:55;6.15;;;4.32;;
49566;SDS011;35472;50.514;30.448;2023-11-18T11:14:37;4.70;;;3.53;;
49566;SDS011;35472;50.514;30.448;2023-11-18T11:17:17;4.18;;;3.65;;
49566;SDS011;35472;50.514;30.448;2023-11-18T11:20:07;5.38;;;3.85;;
49566;SDS011;35472;50.514;30.448;2023-11-18T11:22:46;5.93;;;3.92;;
49566;SDS011;35472;50.514;30.448;2023-11-18T11:25:24;3.55;;;2.83;;
49566;SDS011;35472;50.514;30.448;2023-11-18T11:28:03;7.38;;;2.60;;
49566;SDS011;35472;50.514;30.448;2023-11-18T11:30:40;4.25;;;3.25;;
49566;SDS011;35472;50.514;30.448;2023-11-18T11:35:57;6.15;;;3.85;;
49566;SDS011;35472;50.514;30.448;2023-11-18T11:38:27;5.25;;;4.07;;
49566;SDS011;35472;50.514;30.448;2023-11-18T11:40:54;7.43;;;4.07;;
49566;SDS011;35472;50.514;30.448;2023-11-18T11:43:20;7.03;;;4.97;;
49566;SDS011;35472;50.514;30.448;2023-11-18T11:45:50;4.75;;;3.42;;
49566;SDS011;35472;50.514;30.448;2023-11-18T11:48:22;4.32;;;3.22;;
49566;SDS011;35472;50.514;30.448;2023-11-18T11:53:22;4.90;;;3.63;;
49566;SDS011;35472;50.514;30.448;2023-11-18T11:55:52;3.97;;;3.28;;
49566;SDS011;35472;50.514;30.448;2023-11-18T11:58:25;5.60;;;3.97;;
49566;SDS011;35472;50.514;30.448;2023-11-18T12:00:53;7.00;;;5.03;;
49566;SDS011;35472;50.514;30.448;2023-11-18T12:03:21;5.65;;;4.55;;
49566;SDS011;35472;50.514;30.448;2023-11-18T12:05:54;5.90;;;3.67;;
49566;SDS011;35472;50.514;30.448;2023-11-18T12:08:24;5.53;;;4.38;;
49566;SDS011;35472;50.514;30.448;2023-11-18T12:10:54;3.08;;;2.78;;
49566;SDS011;35472;50.514;30.448;2023-11-18T12:13:23;4.82;;;3.83;;
49566;SDS011;35472;50.514;30.448;2023-11-18T12:15:54;5.72;;;3.17;;
49566;SDS011;35472;50.514;30.448;2023-11-18T12:18:24;4.57;;;3.75;;
49566;SDS011;35472;50.514;30.448;2023-11-18T12:20:49;6.18;;;4.20;;
49566;SDS011;35472;50.514;30.448;2023-11-18T12:23:23;5.03;;;3.78;;
49566;SDS011;35472;50.514;30.448;2023-11-18T12:25:53;4.90;;;3.50;;
49566;SDS011;35472;50.514;30.448;2023-11-18T12:28:29;5.70;;;4.20;;
49566;SDS011;35472;50.514;30.448;2023-11-18T12:31:00;5.13;;;3.20;;
49566;SDS011;35472;50.514;30.448;2023-11-18T12:33:59;5.70;;;3.92;;
49566;SDS011;35472;50.514;30.448;2023-11-18T12:42:06;5.63;;;3.97;;
49566;SDS011;35472;50.514;30.448;2023-11-18T12:44:37;6.57;;;4.13;;
49566;SDS011;35472;50.514;30.448;2023-11-18T12:47:10;6.18;;;3.53;;
49566;SDS011;35472;50.514;30.448;2023-11-18T12:49:46;6.82;;;3.78;;
49566;SDS011;35472;50.514;30.448;2023-11-18T12:52:20;3.22;;;2.58;;
49566;SDS011;35472;50.514;30.448;2023-11-18T12:54:47;4.75;;;3.58;;
49566;SDS011;35472;50.514;30.448;2023-11-18T12:57:16;3.95;;;2.85;;
49566;SDS011;35472;50.514;30.448;2023-11-18T12:59:47;6.22;;;4.15;;
49566;SDS011;35472;50.514;30.448;2023-11-18T13:02:15;5.90;;;3.95;;
49566;SDS011;35472;50.514;30.448;2023-11-18T13:04:47;4.93;;;3.75;;
49566;SDS011;35472;50.514;30.448;2023-11-18T13:07:17;3.88;;;3.05;;
49566;SDS011;35472;50.514;30.448;2023-11-18T13:09:44;5.35;;;3.85;;
49566;SDS011;35472;50.514;30.448;2023-11-18T13:12:11;5.65;;;3.05;;
49566;SDS011;35472;50.514;30.448;2023-11-18T13:14:43;4.28;;;3.28;;
49566;SDS011;35472;50.514;30.448;2023-11-18T13:17:14;6.93;;;3.13;;
49566;SDS011;35472;50.514;30.448;2023-11-18T13:19:41;4.00;;;2.95;;
49566;SDS011;35472;50.514;30.448;2023-11-18T13:22:09;4.13;;;2.42;;
49566;SDS011;35472;50.514;30.448;2023-11-18T13:24:42;6.05;;;3.28;;
49566;SDS011;35472;50.514;30.448;2023-11-18T13:27:14;4.35;;;3.05;;
49566;SDS011;35472;50.514;30.448;2023-11-18T13:29:45;5.00;;;3.20;;
49566;SDS011;35472;50.514;30.448;2023-11-18T13:32:14;2.80;;;2.25;;
49566;SDS011;35472;50.514;30.448;2023-11-18T13:34:40;4.00;;;2.65;;
49566;SDS011;35472;50.514;30.448;2023-11-18T13:37:07;9.13;;;3.33;;
49566;SDS011;35472;50.514;30.448;2023-11-18T13:39:38;4.30;;;3.28;;
49566;SDS011;35472;50.514;30.448;2023-11-18T13:42:23;4.72;;;3.50;;
49566;SDS011;35472;50.514;30.448;2023-11-18T13:44:49;4.03;;;2.97;;
49566;SDS011;35472;50.514;30.448;2023-11-18T13:47:22;7.35;;;4.88;;
49566;SDS011;35472;50.514;30.448;2023-11-18T13:49:53;6.95;;;3.58;;
49566;SDS011;35472;50.514;30.448;2023-11-18T13:52:19;4.53;;;3.45;;
49566;SDS011;35472;50.514;30.448;2023-11-18T13:54:49;3.75;;;3.35;;
49566;SDS011;35472;50.514;30.448;2023-11-18T13:57:20;5.90;;;3.83;;
49566;SDS011;35472;50.514;30.448;2023-11-18T13:59:52;3.70;;;3.15;;
49566;SDS011;35472;50.514;30.448;2023-11-18T14:02:19;6.53;;;4.00;;
49566;SDS011;35472;50.514;30.448;2023-11-18T14:04:46;5.70;;;3.28;;
49566;SDS011;35472;50.514;30.448;2023-11-18T14:07:16;7.25;;;4.05;;
49566;SDS011;35472;50.514;30.448;2023-11-18T14:09:43;4.22;;;3.40;;
49566;SDS011;35472;50.514;30.448;2023-11-18T14:12:10;7.97;;;2.50;;
49566;SDS011;35472;50.514;30.448;2023-11-18T14:14:40;6.10;;;4.05;;
49566;SDS011;35472;50.514;30.448;2023-11-18T14:17:06;4.90;;;3.13;;
49566;SDS011;35472;50.514;30.448;2023-11-18T14:19:35;6.57;;;3.72;;
49566;SDS011;35472;50.514;30.448;2023-11-18T14:22:02;7.10;;;3.60;;
49566;SDS011;35472;50.514;30.448;2023-11-18T14:24:32;5.85;;;4.70;;
49566;SDS011;35472;50.514;30.448;2023-11-18T14:26:58;12.15;;;5.25;;
49566;SDS011;35472;50.514;30.448;2023-11-18T14:29:24;6.53;;;3.75;;
49566;SDS011;35472;50.514;30.448;2023-11-18T14:31:50;8.13;;;4.80;;
49566;SDS011;35472;50.514;30.448;2023-11-18T14:34:15;4.80;;;4.20;;
49566;SDS011;35472;50.514;30.448;2023-11-18T14:36:41;5.95;;;3.22;;
49566;SDS011;35472;50.514;30.448;2023-11-18T14:39:10;5.63;;;4.13;;
49566;SDS011;35472;50.514;30.448;2023-11-18T14:41:37;6.72;;;3.90;;
49566;SDS011;35472;50.514;30.448;2023-11-18T14:44:02;4.53;;;3.50;;
49566;SDS011;35472;50.514;30.448;2023-11-18T14:46:30;6.53;;;4.13;;
49566;SDS011;35472;50.514;30.448;2023-11-18T14:48:58;5.95;;;4.85;;
49566;SDS011;35472;50.514;30.448;2023-11-18T14:51:24;4.18;;;3.03;;
49566;SDS011;35472;50.514;30.448;2023-11-18T14:53:51;5.85;;;4.45;;
49566;SDS011;35472;50.514;30.448;2023-11-18T14:56:16;6.95;;;4.47;;